Time;durP1;ratioP1;P1;durP2;ratioP2;P2;SDS_P1;SDS_P2;PMS_P1;PMS_P2;Temp;Humidity;BMP_temperature;BMP_pressure;BME280_temperature;BME280_humidity;BME280_pressure;Samples;Min_cycle;Max_cycle;Signal;HPM_P1;HPM_P2
2023/09/06 00:00:52;;;;;;;5.75;3.90;;;13.20;99.90;;;;;;4940304;28;20027;-33
2023/09/06 00:03:18;;;;;;;4.30;3.90;;;13.20;99.90;;;;;;4940319;28;20038;-35
2023/09/06 00:05:44;;;;;;;5.30;3.95;;;13.10;99.90;;;;;;4942416;28;20035;-35
2023/09/06 00:08:14;;;;;;;5.47;3.78;;;13.10;99.90;;;;;;4937555;28;20035;-37
2023/09/06 00:10:43;;;;;;;8.23;4.55;;;13.00;99.90;;;;;;4942084;28;20074;-35
2023/09/06 00:13:11;;;;;;;5.65;3.83;;;12.80;99.90;;;;;;4938008;29;20031;-35
2023/09/06 00:15:37;;;;;;;4.93;3.75;;;12.70;99.90;;;;;;4929428;28;20031;-35
2023/09/06 00:18:05;;;;;;;6.00;4.30;;;12.70;99.90;;;;;;4931055;28;20564;-36
2023/09/06 00:20:34;;;;;;;5.78;3.95;;;12.60;99.90;;;;;;4942110;28;21776;-34
2023/09/06 00:23:02;;;;;;;6.45;4.38;;;12.70;99.90;;;;;;4938187;28;20586;-32
2023/09/06 00:25:30;;;;;;;5.70;3.73;;;12.70;99.90;;;;;;4943846;28;20035;-36
2023/09/06 00:27:58;;;;;;;5.70;3.55;;;12.70;99.90;;;;;;4940520;28;20287;-30
2023/09/06 00:30:24;;;;;;;5.07;3.70;;;12.70;99.90;;;;;;4938516;28;20031;-33
2023/09/06 00:32:53;;;;;;;6.82;3.70;;;12.60;99.90;;;;;;4940221;28;20035;-33
2023/09/06 00:35:20;;;;;;;4.75;3.70;;;12.70;99.90;;;;;;4946544;28;20453;-35
2023/09/06 00:37:46;;;;;;;4.90;3.80;;;12.80;99.90;;;;;;4942132;28;20493;-36
2023/09/06 00:40:18;;;;;;;7.70;3.67;;;12.80;99.90;;;;;;4941123;28;20059;-35
2023/09/06 00:42:48;;;;;;;5.50;3.78;;;12.80;99.90;;;;;;4941945;28;20125;-33
2023/09/06 00:45:15;;;;;;;5.18;3.63;;;12.70;99.90;;;;;;4942188;28;20467;-30
2023/09/06 00:47:42;;;;;;;5.32;3.97;;;12.70;99.90;;;;;;4929576;28;20146;-32
2023/09/06 00:50:11;;;;;;;7.18;4.03;;;12.70;99.90;;;;;;4941363;28;20161;-31
2023/09/06 00:52:37;;;;;;;8.88;4.05;;;12.70;99.90;;;;;;4936535;28;20118;-34
2023/09/06 00:55:04;;;;;;;5.38;3.80;;;12.40;99.90;;;;;;4942053;28;20027;-33
2023/09/06 00:57:30;;;;;;;7.85;4.13;;;12.30;99.90;;;;;;4941754;28;20039;-38
2023/09/06 01:00:00;;;;;;;8.13;4.35;;;12.30;99.90;;;;;;4940063;28;20717;-32
2023/09/06 01:02:26;;;;;;;5.57;4.57;;;12.30;99.90;;;;;;4936178;28;20283;-33
2023/09/06 01:04:53;;;;;;;6.22;3.60;;;12.30;99.90;;;;;;4937185;28;20042;-33
2023/09/06 01:07:21;;;;;;;4.65;3.40;;;12.30;99.90;;;;;;4942554;28;20125;-31
2023/09/06 01:09:47;;;;;;;5.75;3.30;;;12.30;99.90;;;;;;4936968;28;20039;-32
2023/09/06 01:12:13;;;;;;;3.90;3.42;;;12.30;99.90;;;;;;4940884;28;20033;-34
2023/09/06 01:14:40;;;;;;;4.28;3.30;;;12.30;99.90;;;;;;4936589;28;20035;-33
2023/09/06 01:17:09;;;;;;;5.18;3.30;;;12.10;99.90;;;;;;4939832;28;20039;-34
2023/09/06 01:19:39;;;;;;;3.72;3.33;;;12.00;99.90;;;;;;4939561;28;20038;-38
2023/09/06 01:22:14;;;;;;;8.98;3.90;;;12.00;99.90;;;;;;4951062;28;20033;-38
2023/09/06 01:24:40;;;;;;;4.70;3.78;;;12.10;99.90;;;;;;4937594;28;20377;-36
2023/09/06 01:27:06;;;;;;;5.30;3.63;;;12.10;99.90;;;;;;4937144;28;20050;-36
2023/09/06 01:29:32;;;;;;;4.22;3.33;;;12.10;99.90;;;;;;4939094;28;20039;-35
2023/09/06 01:31:57;;;;;;;4.40;2.85;;;11.90;99.90;;;;;;4934576;28;20437;-34
2023/09/06 01:34:23;;;;;;;4.40;3.05;;;11.90;99.90;;;;;;4938780;28;20033;-38
2023/09/06 01:36:48;;;;;;;4.40;3.25;;;11.80;99.90;;;;;;4941667;28;20023;-39
2023/09/06 01:39:14;;;;;;;5.55;3.13;;;11.80;99.90;;;;;;4934428;28;20068;-37
2023/09/06 01:41:40;;;;;;;4.40;3.20;;;11.70;99.90;;;;;;4939823;28;20027;-37
2023/09/06 01:44:05;;;;;;;5.10;3.03;;;11.70;99.90;;;;;;4938092;28;20106;-38
2023/09/06 01:46:31;;;;;;;4.22;2.97;;;11.80;99.90;;;;;;4933485;28;20043;-36
2023/09/06 01:48:59;;;;;;;3.60;3.10;;;11.90;99.90;;;;;;4939148;28;20121;-35
2023/09/06 01:51:24;;;;;;;4.07;3.28;;;11.80;99.90;;;;;;4937719;28;20243;-35
2023/09/06 01:53:50;;;;;;;3.92;2.75;;;11.90;99.90;;;;;;4936382;28;20090;-36
2023/09/06 01:56:16;;;;;;;4.78;3.95;;;11.80;99.90;;;;;;4942131;28;20413;-34
2023/09/06 01:58:41;;;;;;;5.32;3.72;;;11.80;99.90;;;;;;4935203;28;20444;-39
2023/09/06 02:01:07;;;;;;;5.38;3.60;;;11.80;99.90;;;;;;4939640;28;20130;-38
2023/09/06 02:03:33;;;;;;;5.63;4.00;;;11.80;99.90;;;;;;4936350;29;20035;-38
2023/09/06 02:06:01;;;;;;;5.15;3.95;;;11.80;99.90;;;;;;4942137;28;20039;-37
2023/09/06 02:08:26;;;;;;;5.70;3.40;;;11.80;99.90;;;;;;4937694;28;20031;-40
2023/09/06 02:10:52;;;;;;;5.95;3.60;;;11.80;99.90;;;;;;4934807;28;20778;-40
2023/09/06 02:13:18;;;;;;;3.47;3.00;;;11.80;99.90;;;;;;4938671;28;20043;-40
2023/09/06 02:15:43;;;;;;;3.67;2.92;;;11.70;99.90;;;;;;4940191;28;20036;-39
2023/09/06 02:18:10;;;;;;;6.25;3.20;;;11.60;99.90;;;;;;4934530;29;20070;-38
2023/09/06 02:20:39;;;;;;;4.32;2.80;;;11.60;99.90;;;;;;4938206;28;20098;-38
2023/09/06 02:23:04;;;;;;;2.60;2.38;;;11.70;99.90;;;;;;4939443;28;20032;-40
2023/09/06 02:25:32;;;;;;;1.67;1.50;;;11.60;99.90;;;;;;4938909;28;20094;-35
2023/09/06 02:28:03;;;;;;;1.90;1.23;;;11.50;99.90;;;;;;4934495;28;20047;-33
2023/09/06 02:30:28;;;;;;;2.08;1.88;;;11.50;99.90;;;;;;4933192;28;20564;-37
2023/09/06 02:32:55;;;;;;;1.77;1.67;;;11.60;99.90;;;;;;4935223;28;20019;-35
2023/09/06 02:35:21;;;;;;;2.40;2.20;;;11.60;99.90;;;;;;4939331;28;20402;-35
2023/09/06 02:37:47;;;;;;;1.98;1.88;;;11.50;99.90;;;;;;4937352;28;20046;-41
2023/09/06 02:40:13;;;;;;;2.60;2.17;;;11.30;99.90;;;;;;4947155;28;20037;-38
2023/09/06 02:42:43;;;;;;;5.00;3.35;;;11.30;99.90;;;;;;4939536;28;20051;-40
2023/09/06 02:45:13;;;;;;;4.72;3.28;;;11.20;99.90;;;;;;4940706;28;20027;-37
2023/09/06 02:47:47;;;;;;;3.95;3.30;;;11.20;99.90;;;;;;4939962;28;20085;-38
2023/09/06 02:50:14;;;;;;;5.03;3.97;;;11.20;99.90;;;;;;4938114;28;20762;-39
2023/09/06 02:52:44;;;;;;;5.60;3.97;;;11.00;99.90;;;;;;4942107;28;20126;-37
2023/09/06 02:55:13;;;;;;;4.32;3.60;;;11.00;99.90;;;;;;4941790;29;20030;-38
2023/09/06 02:57:42;;;;;;;3.95;3.15;;;11.10;99.90;;;;;;4943192;28;21758;-38
2023/09/06 03:00:19;;;;;;;5.82;4.07;;;11.20;99.90;;;;;;4943736;28;20034;-36
2023/09/06 03:02:46;;;;;;;6.10;3.92;;;11.20;99.90;;;;;;4934666;28;20047;-39
2023/09/06 03:05:17;;;;;;;4.03;2.90;;;11.20;99.90;;;;;;4941091;28;20031;-37
2023/09/06 03:07:53;;;;;;;3.42;2.75;;;11.10;99.90;;;;;;4939519;28;20031;-38
2023/09/06 03:10:20;;;;;;;2.53;2.28;;;11.10;99.90;;;;;;4942382;28;20023;-39
2023/09/06 03:12:56;;;;;;;2.88;2.58;;;11.00;99.90;;;;;;4937935;28;20884;-38
2023/09/06 03:15:23;;;;;;;3.08;2.75;;;10.90;99.90;;;;;;4942086;28;20125;-35
2023/09/06 03:17:53;;;;;;;3.15;2.25;;;10.90;99.90;;;;;;4940391;28;20082;-38
2023/09/06 03:20:19;;;;;;;2.40;2.15;;;10.80;99.90;;;;;;4942729;28;20046;-38
2023/09/06 03:22:51;;;;;;;3.08;2.22;;;10.70;99.90;;;;;;4940774;28;20035;-39
2023/09/06 03:25:17;;;;;;;2.35;2.15;;;10.90;99.90;;;;;;4939936;28;20043;-39
2023/09/06 03:27:44;;;;;;;4.47;2.90;;;10.90;99.90;;;;;;4940003;28;20042;-34
2023/09/06 03:30:15;;;;;;;6.53;3.40;;;10.90;99.90;;;;;;4941104;28;20031;-38
2023/09/06 03:32:42;;;;;;;3.40;3.10;;;11.00;99.90;;;;;;4938618;28;20624;-39
2023/09/06 03:35:08;;;;;;;3.30;2.38;;;11.00;99.90;;;;;;4943468;28;20136;-40
2023/09/06 03:37:33;;;;;;;5.47;3.20;;;11.00;99.90;;;;;;4936896;28;20405;-40
2023/09/06 03:40:00;;;;;;;3.25;2.75;;;11.00;99.90;;;;;;4942536;28;20023;-35
2023/09/06 03:42:26;;;;;;;5.55;3.70;;;10.90;99.90;;;;;;4941047;28;20027;-36
2023/09/06 03:44:52;;;;;;;4.68;3.38;;;10.90;99.90;;;;;;4939921;28;20600;-39
2023/09/06 03:47:18;;;;;;;7.80;3.90;;;10.90;99.90;;;;;;4942967;28;20035;-40
2023/09/06 03:49:45;;;;;;;4.28;3.28;;;10.90;99.90;;;;;;4938807;28;20043;-32
2023/09/06 03:52:11;;;;;;;5.95;4.43;;;10.90;99.90;;;;;;4943676;28;20643;-32
2023/09/06 03:54:37;;;;;;;10.35;4.70;;;10.90;99.90;;;;;;4922288;28;20035;-33
2023/09/06 03:57:04;;;;;;;6.57;4.20;;;10.80;99.90;;;;;;4941721;28;20231;-35
2023/09/06 03:59:35;;;;;;;7.95;4.82;;;10.70;99.90;;;;;;4939472;28;20027;-32
2023/09/06 04:02:07;;;;;;;7.55;4.35;;;10.60;99.90;;;;;;4940369;28;20035;-34
2023/09/06 04:04:34;;;;;;;11.30;4.80;;;10.60;99.90;;;;;;4942809;28;20385;-31
2023/09/06 04:07:00;;;;;;;5.82;3.53;;;10.50;99.90;;;;;;4943149;28;20035;-34
2023/09/06 04:09:30;;;;;;;5.65;2.90;;;10.40;99.90;;;;;;4942635;28;20478;-34
2023/09/06 04:11:59;;;;;;;4.20;2.70;;;10.30;99.90;;;;;;4941587;28;20034;-30
2023/09/06 04:14:25;;;;;;;3.90;3.33;;;10.30;99.90;;;;;;4940805;28;20793;-33
2023/09/06 04:16:51;;;;;;;7.35;3.38;;;10.30;99.90;;;;;;4940244;28;20621;-33
2023/09/06 04:19:16;;;;;;;10.00;3.80;;;10.20;99.90;;;;;;4939265;28;20039;-34
2023/09/06 04:21:43;;;;;;;7.88;3.20;;;10.20;99.90;;;;;;4941758;28;20031;-37
2023/09/06 04:24:09;;;;;;;6.68;3.75;;;10.30;99.90;;;;;;4938855;28;20271;-31
2023/09/06 04:26:35;;;;;;;4.43;3.03;;;10.40;99.90;;;;;;4941623;28;20086;-34
2023/09/06 04:29:02;;;;;;;4.05;3.10;;;10.40;99.90;;;;;;4936552;28;20046;-35
2023/09/06 04:31:28;;;;;;;7.87;3.20;;;10.50;99.90;;;;;;4939576;28;20499;-34
2023/09/06 04:33:54;;;;;;;11.68;3.67;;;10.40;99.90;;;;;;4936358;28;20035;-33
2023/09/06 04:36:20;;;;;;;8.05;3.80;;;10.40;99.90;;;;;;4941133;28;20349;-35
2023/09/06 04:38:46;;;;;;;4.15;3.15;;;10.30;99.90;;;;;;4938077;28;20047;-34
2023/09/06 04:41:14;;;;;;;6.07;3.47;;;10.30;99.90;;;;;;4936819;28;20050;-33
2023/09/06 04:43:40;;;;;;;5.13;3.03;;;10.40;99.90;;;;;;4935479;28;20567;-32
2023/09/06 04:46:06;;;;;;;2.92;2.55;;;10.40;99.90;;;;;;4934783;28;20043;-33
2023/09/06 04:48:31;;;;;;;2.83;2.53;;;10.40;99.90;;;;;;4936923;28;20039;-34
2023/09/06 04:50:59;;;;;;;3.22;2.85;;;10.50;99.90;;;;;;4941556;28;20027;-36
2023/09/06 04:53:25;;;;;;;4.53;3.13;;;10.40;99.90;;;;;;4943023;28;20016;-38
2023/09/06 04:55:52;;;;;;;5.43;3.08;;;10.50;99.90;;;;;;4941472;28;20034;-36
2023/09/06 04:58:18;;;;;;;3.28;2.40;;;10.50;99.90;;;;;;4935794;28;20059;-36
2023/09/06 05:00:47;;;;;;;3.95;1.85;;;10.30;99.90;;;;;;4940792;28;20043;-34
2023/09/06 05:03:13;;;;;;;2.58;1.90;;;10.40;99.90;;;;;;4937264;28;20042;-33
2023/09/06 05:05:41;;;;;;;2.13;1.33;;;10.40;99.90;;;;;;4940066;28;20031;-37
2023/09/06 05:08:07;;;;;;;1.65;1.50;;;10.30;99.90;;;;;;4939425;28;20179;-33
2023/09/06 05:10:35;;;;;;;5.43;2.00;;;10.20;99.90;;;;;;4938109;28;20634;-33
2023/09/06 05:13:01;;;;;;;3.50;2.13;;;10.20;99.90;;;;;;4938815;28;20142;-33
2023/09/06 05:15:27;;;;;;;3.97;2.65;;;10.30;99.90;;;;;;4943438;28;20447;-36
2023/09/06 05:17:53;;;;;;;5.97;2.55;;;10.40;99.90;;;;;;4941642;28;20085;-33
2023/09/06 05:20:33;;;;;;;8.13;2.80;;;10.30;99.90;;;;;;4940128;28;20047;-36
2023/09/06 05:23:07;;;;;;;5.15;2.63;;;10.30;99.90;;;;;;4939606;28;20042;-33
2023/09/06 05:25:33;;;;;;;3.67;2.45;;;10.20;99.90;;;;;;4941042;28;20049;-33
2023/09/06 05:28:04;;;;;;;4.20;2.33;;;10.30;99.90;;;;;;4938692;28;20580;-36
2023/09/06 05:30:31;;;;;;;7.60;3.30;;;10.30;99.90;;;;;;4943481;28;20505;-35
2023/09/06 05:32:57;;;;;;;6.95;3.38;;;10.40;99.90;;;;;;4939630;28;20481;-35
2023/09/06 05:35:24;;;;;;;5.55;3.60;;;10.40;99.90;;;;;;4941210;28;20032;-36
2023/09/06 05:37:50;;;;;;;6.57;3.58;;;10.50;99.90;;;;;;4936796;28;20668;-33
2023/09/06 05:40:22;;;;;;;5.93;3.70;;;10.50;99.90;;;;;;4938365;28;20038;-33
2023/09/06 05:42:48;;;;;;;7.20;3.88;;;10.60;99.90;;;;;;4936835;28;20035;-37
2023/09/06 05:45:13;;;;;;;6.03;4.47;;;10.70;99.90;;;;;;4940041;28;20039;-33
2023/09/06 05:47:39;;;;;;;10.98;4.47;;;10.60;99.90;;;;;;4938590;28;20034;-35
2023/09/06 05:50:06;;;;;;;10.48;4.55;;;10.70;99.90;;;;;;4936724;28;20023;-35
2023/09/06 05:52:32;;;;;;;9.88;4.78;;;10.80;99.90;;;;;;4942093;28;20694;-36
2023/09/06 05:54:58;;;;;;;7.32;4.30;;;10.90;99.90;;;;;;4937044;28;20472;-35
2023/09/06 05:57:24;;;;;;;13.27;5.05;;;11.00;99.90;;;;;;4942781;28;20022;-34
2023/09/06 05:59:50;;;;;;;6.88;4.18;;;11.20;99.90;;;;;;4941386;28;20031;-35
2023/09/06 06:02:17;;;;;;;7.53;4.55;;;11.20;99.90;;;;;;4943178;28;21961;-36
2023/09/06 06:04:45;;;;;;;7.15;4.88;;;11.20;99.90;;;;;;4953183;28;20038;-34
2023/09/06 06:07:17;;;;;;;6.53;4.20;;;11.40;99.90;;;;;;4944091;28;20728;-34
2023/09/06 06:09:43;;;;;;;5.97;4.18;;;11.40;99.90;;;;;;4938547;28;20052;-34
2023/09/06 06:12:13;;;;;;;7.22;4.78;;;11.50;99.90;;;;;;4937276;28;20763;-31
2023/09/06 06:14:40;;;;;;;6.68;4.70;;;11.70;99.90;;;;;;4934819;28;20031;-35
2023/09/06 06:17:06;;;;;;;7.32;5.07;;;11.80;99.90;;;;;;4937725;28;20026;-33
2023/09/06 06:19:35;;;;;;;8.05;5.43;;;11.90;99.90;;;;;;4943510;28;20035;-36
2023/09/06 06:22:02;;;;;;;8.57;5.72;;;11.90;99.90;;;;;;4941557;28;20463;-32
2023/09/06 06:24:27;;;;;;;9.20;5.90;;;12.00;99.90;;;;;;4943093;28;20527;-35
2023/09/06 06:26:54;;;;;;;7.95;5.68;;;12.10;99.90;;;;;;4942962;28;20106;-32
2023/09/06 06:29:19;;;;;;;10.73;6.70;;;12.10;99.90;;;;;;4941767;28;20075;-33
2023/09/06 06:31:45;;;;;;;9.20;6.30;;;12.20;99.90;;;;;;4941447;28;20063;-32
2023/09/06 06:34:11;;;;;;;8.07;5.80;;;12.30;99.90;;;;;;4938916;28;20034;-37
2023/09/06 06:36:36;;;;;;;8.48;5.95;;;12.40;99.90;;;;;;4939624;28;20031;-36
2023/09/06 06:39:02;;;;;;;8.48;6.30;;;12.50;99.90;;;;;;4941283;28;20043;-32
2023/09/06 06:41:28;;;;;;;13.50;7.28;;;12.70;99.90;;;;;;4939067;28;20035;-34
2023/09/06 11:30:26;;;;;;;4.40;3.63;;;23.80;99.90;;;;;;5070586;27;20437;-30
2023/09/06 11:32:56;;;;;;;5.30;3.47;;;23.80;99.90;;;;;;5052370;28;20025;-31
2023/09/06 11:35:34;;;;;;;4.03;3.65;;;23.80;99.90;;;;;;5053588;28;20504;-32
2023/09/06 11:38:02;;;;;;;3.92;3.55;;;24.00;99.90;;;;;;5053763;28;20495;-32
2023/09/06 11:40:31;;;;;;;5.68;4.18;;;24.30;99.90;;;;;;5054180;28;20028;-35
2023/09/06 11:43:05;;;;;;;4.25;3.53;;;24.20;99.90;;;;;;5049643;28;20996;-35
2023/09/06 11:45:32;;;;;;;8.00;4.18;;;24.40;99.90;;;;;;5054061;28;20147;-35
2023/09/06 11:48:07;;;;;;;5.25;3.70;;;24.40;99.90;;;;;;5052845;28;20040;-37
2023/09/06 11:50:42;;;;;;;3.65;3.35;;;24.40;99.90;;;;;;5052279;28;20025;-35
2023/09/06 11:53:11;;;;;;;3.75;3.45;;;24.20;99.90;;;;;;5051064;28;20033;-38
2023/09/06 11:55:41;;;;;;;3.83;3.38;;;24.40;99.90;;;;;;5054723;28;20040;-35
2023/09/06 11:58:16;;;;;;;5.05;4.00;;;24.60;99.90;;;;;;5050812;28;20036;-35
2023/09/06 12:00:46;;;;;;;5.88;4.00;;;24.60;99.90;;;;;;5054102;28;20036;-33
2023/09/06 12:03:13;;;;;;;4.55;4.10;;;24.60;99.90;;;;;;5057795;28;20039;-34
2023/09/06 12:05:43;;;;;;;4.55;3.80;;;24.60;99.90;;;;;;5056325;28;20036;-35
2023/09/06 12:08:17;;;;;;;5.05;3.55;;;24.70;99.90;;;;;;5054073;28;20078;-34
2023/09/06 12:10:50;;;;;;;4.32;3.35;;;24.80;99.90;;;;;;5054911;28;20021;-34
2023/09/06 12:13:17;;;;;;;3.85;3.33;;;24.70;99.90;;;;;;5045908;28;20471;-33
2023/09/06 12:15:44;;;;;;;4.65;3.08;;;24.60;99.90;;;;;;5043972;28;20017;-31
2023/09/06 12:18:10;;;;;;;5.45;4.43;;;24.60;99.90;;;;;;5054458;28;20064;-33
2023/09/06 12:20:35;;;;;;;3.72;3.30;;;24.60;99.90;;;;;;5056070;28;20056;-33
2023/09/06 12:23:04;;;;;;;4.40;3.00;;;24.90;99.90;;;;;;5054834;28;20036;-34
2023/09/06 12:25:30;;;;;;;4.90;3.33;;;24.80;99.90;;;;;;5056242;28;20322;-31
2023/09/06 12:27:56;;;;;;;3.72;3.10;;;24.70;99.90;;;;;;5055808;28;20514;-34
2023/09/06 12:30:22;;;;;;;7.53;3.33;;;24.60;99.90;;;;;;5050458;28;20067;-39
2023/09/06 12:32:48;;;;;;;4.20;2.97;;;24.60;99.90;;;;;;5038928;28;20094;-41
2023/09/06 12:35:14;;;;;;;4.35;3.08;;;24.50;99.90;;;;;;5040395;28;20032;-35
2023/09/06 12:37:40;;;;;;;3.55;3.20;;;24.60;99.90;;;;;;5040857;28;20144;-36
2023/09/06 12:40:10;;;;;;;4.55;3.30;;;24.70;99.90;;;;;;5040886;28;20130;-41
2023/09/06 12:42:45;;;;;;;4.53;3.10;;;24.50;99.90;;;;;;5044529;28;20361;-38
2023/09/06 12:45:30;;;;;;;3.88;3.08;;;24.70;99.90;;;;;;5042469;28;20387;-37
2023/09/06 12:47:57;;;;;;;3.15;2.85;;;24.80;99.90;;;;;;5040808;28;22080;-35
2023/09/06 12:50:23;;;;;;;3.45;3.15;;;24.90;99.90;;;;;;5041203;28;20033;-38
2023/09/06 12:52:49;;;;;;;3.50;2.97;;;24.80;99.90;;;;;;5034952;28;20407;-39
2023/09/06 12:55:15;;;;;;;4.78;3.20;;;24.90;99.90;;;;;;5042508;28;20045;-37
2023/09/06 12:57:41;;;;;;;3.55;3.22;;;25.00;99.90;;;;;;5040343;28;20020;-38
2023/09/06 13:00:10;;;;;;;3.95;2.92;;;25.20;99.90;;;;;;5040844;28;20024;-39
2023/09/06 13:02:35;;;;;;;3.78;2.95;;;25.10;99.90;;;;;;5040708;28;20044;-39
2023/09/06 13:05:01;;;;;;;3.85;3.40;;;24.90;99.90;;;;;;5039392;28;20025;-40
2023/09/06 13:07:28;;;;;;;4.75;2.85;;;24.90;99.90;;;;;;5039282;28;20090;-38
2023/09/06 13:09:54;;;;;;;4.22;3.20;;;25.10;99.90;;;;;;5042394;28;20707;-38
2023/09/06 13:12:21;;;;;;;3.83;3.03;;;25.20;99.90;;;;;;5044495;28;20111;-40
2023/09/06 13:14:46;;;;;;;3.30;3.00;;;25.30;99.90;;;;;;5043761;28;20058;-34
2023/09/06 13:17:12;;;;;;;4.13;3.13;;;25.20;99.90;;;;;;5039130;28;20028;-36
2023/09/06 13:19:44;;;;;;;3.85;3.40;;;25.10;99.90;;;;;;5041645;28;20028;-35
2023/09/06 13:22:12;;;;;;;3.55;3.08;;;25.20;99.90;;;;;;5038923;28;20063;-39
2023/09/06 13:24:37;;;;;;;3.30;3.00;;;25.10;99.90;;;;;;5038759;28;20040;-38
2023/09/06 13:27:03;;;;;;;3.60;3.17;;;25.30;99.90;;;;;;5040890;28;20029;-39
2023/09/06 13:29:29;;;;;;;3.05;2.70;;;25.40;99.90;;;;;;5038874;28;20131;-36
2023/09/06 13:31:55;;;;;;;3.40;3.00;;;25.40;99.90;;;;;;5035250;28;20040;-38
2023/09/06 13:34:22;;;;;;;3.75;3.13;;;25.40;99.90;;;;;;5039792;28;20032;-38
2023/09/06 13:36:48;;;;;;;3.20;2.90;;;25.30;99.90;;;;;;5031960;28;20118;-36
2023/09/06 13:39:15;;;;;;;3.83;3.17;;;25.20;99.90;;;;;;5038718;28;20114;-40
2023/09/06 13:41:41;;;;;;;3.33;2.93;;;25.40;99.90;;;;;;5035599;28;20133;-36
2023/09/06 13:44:07;;;;;;;3.55;3.22;;;25.30;99.90;;;;;;5039418;28;20025;-39
2023/09/06 13:46:33;;;;;;;3.30;2.83;;;25.40;99.90;;;;;;5040400;28;20685;-39
2023/09/06 13:49:00;;;;;;;4.22;3.17;;;25.70;99.90;;;;;;5032246;28;20037;-35
2023/09/06 13:51:27;;;;;;;3.22;2.47;;;25.70;99.90;;;;;;5028966;28;20486;-34
2023/09/06 13:53:52;;;;;;;4.85;2.75;;;25.50;99.90;;;;;;5032490;28;20036;-35
2023/09/06 13:56:18;;;;;;;3.70;2.95;;;25.60;99.90;;;;;;5031418;28;20029;-35
2023/09/06 13:58:44;;;;;;;5.97;2.95;;;25.60;99.90;;;;;;5031291;28;20041;-36
2023/09/06 14:01:10;;;;;;;3.33;3.03;;;25.60;99.90;;;;;;5029496;28;20110;-40
2023/09/06 14:03:37;;;;;;;3.08;2.78;;;25.60;99.90;;;;;;5028844;28;20033;-40
2023/09/06 14:06:02;;;;;;;4.43;2.78;;;25.50;99.90;;;;;;5033801;28;20045;-35
2023/09/06 14:08:28;;;;;;;3.67;2.97;;;25.40;99.90;;;;;;5035429;28;20044;-39
2023/09/06 14:10:54;;;;;;;3.38;3.08;;;25.60;99.90;;;;;;5037717;28;20499;-38
2023/09/06 14:13:22;;;;;;;3.13;2.83;;;25.50;99.90;;;;;;5038002;28;20074;-35
2023/09/06 14:15:48;;;;;;;;;;;25.60;99.90;;;;;;5039563;28;20035;-40
2023/09/06 14:18:13;;;;;;;3.95;2.70;;;25.50;99.90;;;;;;5038401;28;19963;-38
2023/09/06 14:20:39;;;;;;;3.10;2.80;;;25.60;99.90;;;;;;5040092;28;20131;-39
2023/09/06 14:23:04;;;;;;;4.03;2.70;;;25.50;99.90;;;;;;5037762;28;20032;-38
2023/09/06 14:25:30;;;;;;;3.88;2.92;;;25.40;99.90;;;;;;5039434;28;20033;-39
2023/09/06 14:27:56;;;;;;;3.90;2.80;;;25.40;99.90;;;;;;5041115;28;20447;-37
2023/09/06 14:30:22;;;;;;;3.15;2.67;;;25.30;99.90;;;;;;5034901;28;20051;-39
2023/09/06 14:32:47;;;;;;;2.90;2.65;;;25.30;99.90;;;;;;5038222;28;20041;-39
2023/09/06 14:35:13;;;;;;;3.80;2.67;;;25.40;99.90;;;;;;5031327;28;20082;-37
2023/09/06 14:37:39;;;;;;;4.53;2.90;;;25.50;99.90;;;;;;5038763;28;20036;-37
2023/09/06 14:40:05;;;;;;;3.78;3.17;;;25.40;99.90;;;;;;5036809;28;20663;-37
2023/09/06 14:42:33;;;;;;;3.38;3.08;;;25.40;99.90;;;;;;5035642;28;20521;-39
2023/09/06 14:45:00;;;;;;;4.55;2.80;;;25.50;99.90;;;;;;5035005;28;20134;-39
2023/09/06 14:47:27;;;;;;;4.45;3.05;;;25.50;99.90;;;;;;5041783;28;20788;-39
2023/09/06 14:49:52;;;;;;;2.60;2.40;;;25.40;99.90;;;;;;5040238;28;20063;-37
2023/09/06 14:52:18;;;;;;;4.05;2.95;;;25.50;99.90;;;;;;5040840;28;20064;-31
2023/09/06 14:54:44;;;;;;;3.20;2.75;;;25.40;99.90;;;;;;5043740;28;20525;-31
2023/09/06 14:57:09;;;;;;;2.95;2.63;;;25.40;99.90;;;;;;5042912;28;20586;-35
2023/09/06 14:59:37;;;;;;;5.13;2.55;;;25.40;99.90;;;;;;5042383;28;20039;-34
2023/09/06 15:02:04;;;;;;;3.33;2.80;;;25.30;99.90;;;;;;5041052;28;20040;-32
2023/09/06 15:04:29;;;;;;;4.10;3.13;;;25.30;99.90;;;;;;5043909;28;20029;-30
2023/09/06 15:06:55;;;;;;;3.00;2.70;;;25.40;99.90;;;;;;5051397;28;20847;-33
2023/09/06 15:09:22;;;;;;;3.50;2.65;;;25.40;99.90;;;;;;5043251;28;20044;-31
2023/09/06 15:11:49;;;;;;;4.45;3.13;;;25.40;99.90;;;;;;5037189;28;20120;-31
2023/09/06 15:14:14;;;;;;;3.00;2.70;;;25.40;99.90;;;;;;5039692;28;20033;-33
2023/09/06 15:16:40;;;;;;;3.53;2.78;;;25.40;99.90;;;;;;5037729;28;20016;-31
2023/09/06 15:19:06;;;;;;;4.68;2.70;;;25.40;99.90;;;;;;5042778;28;20037;-34
2023/09/06 15:21:31;;;;;;;3.78;2.90;;;25.50;99.90;;;;;;5040772;28;20028;-35
2023/09/06 15:23:57;;;;;;;2.67;2.47;;;25.50;99.90;;;;;;5044715;28;20395;-31
2023/09/06 15:26:24;;;;;;;3.10;2.33;;;25.40;99.90;;;;;;5046507;28;20032;-31
2023/09/06 15:28:50;;;;;;;2.65;2.40;;;25.40;99.90;;;;;;5039393;28;20045;-31
2023/09/06 15:31:20;;;;;;;2.85;2.35;;;25.40;99.90;;;;;;5043408;28;20383;-32
2023/09/06 15:33:46;;;;;;;3.95;2.13;;;25.30;99.90;;;;;;5040376;28;21023;-33
2023/09/06 15:36:12;;;;;;;3.20;2.50;;;25.30;99.90;;;;;;5037570;28;20485;-33
2023/09/06 15:38:41;;;;;;;4.80;2.78;;;25.30;99.90;;;;;;5042127;28;20070;-30
2023/09/06 15:41:11;;;;;;;3.03;2.35;;;25.30;99.90;;;;;;5042300;28;20029;-32
2023/09/06 15:43:37;;;;;;;2.88;2.63;;;25.30;99.90;;;;;;5041303;28;20111;-37
2023/09/06 15:46:03;;;;;;;2.95;2.22;;;25.30;99.90;;;;;;5042774;28;20036;-33
2023/09/06 15:48:30;;;;;;;2.40;2.20;;;25.30;99.90;;;;;;5041607;28;20655;-31
2023/09/06 15:50:55;;;;;;;3.53;2.13;;;25.30;99.90;;;;;;5042142;28;20055;-32
2023/09/06 15:53:21;;;;;;;2.38;2.17;;;25.30;99.90;;;;;;5041606;28;20161;-33
2023/09/06 15:55:46;;;;;;;2.40;2.17;;;25.30;99.90;;;;;;5043322;28;20025;-30
2023/09/06 15:58:12;;;;;;;2.50;2.30;;;25.20;99.90;;;;;;5044224;28;20029;-33
2023/09/06 16:00:37;;;;;;;2.33;1.77;;;25.20;99.90;;;;;;5040727;28;20122;-30
2023/09/06 16:03:04;;;;;;;3.22;2.35;;;25.30;99.90;;;;;;5039963;28;20116;-34
2023/09/06 16:05:30;;;;;;;2.40;2.20;;;25.30;99.90;;;;;;5044787;28;20040;-35
2023/09/06 16:07:56;;;;;;;2.45;2.22;;;25.30;99.90;;;;;;5044105;28;20163;-35
2023/09/06 16:10:26;;;;;;;2.58;2.15;;;25.20;99.90;;;;;;5043939;28;20021;-32
2023/09/06 16:12:52;;;;;;;2.80;2.00;;;25.20;99.90;;;;;;5044662;28;20724;-32
2023/09/06 16:15:22;;;;;;;1.83;1.73;;;25.20;99.90;;;;;;5046959;28;20021;-31
2023/09/06 16:17:48;;;;;;;1.80;1.70;;;25.20;99.90;;;;;;5046478;28;20062;-34
2023/09/06 16:20:14;;;;;;;3.03;1.70;;;25.20;99.90;;;;;;5043256;28;20581;-34
2023/09/06 16:22:41;;;;;;;2.00;1.70;;;25.10;99.90;;;;;;5044186;28;20036;-33
2023/09/06 16:25:10;;;;;;;2.28;1.70;;;25.00;99.90;;;;;;5042714;28;20025;-33
2023/09/06 16:27:36;;;;;;;2.25;1.80;;;25.00;99.90;;;;;;5040055;28;20032;-34
2023/09/06 16:30:07;;;;;;;1.90;1.77;;;24.90;99.90;;;;;;5044760;28;20052;-31
2023/09/06 16:32:33;;;;;;;2.08;1.88;;;24.90;99.90;;;;;;5043957;28;20040;-37
2023/09/06 16:34:59;;;;;;;2.25;1.70;;;24.90;99.90;;;;;;5042810;28;20036;-34
2023/09/06 16:37:25;;;;;;;2.15;1.83;;;24.90;99.90;;;;;;5046062;28;20025;-35
2023/09/06 16:39:50;;;;;;;2.22;1.73;;;24.80;99.90;;;;;;5045698;28;20083;-32
2023/09/06 16:42:16;;;;;;;4.13;2.10;;;24.70;99.90;;;;;;5045340;28;20494;-33
2023/09/06 16:44:42;;;;;;;2.95;1.80;;;24.60;99.90;;;;;;5041797;28;20040;-33
2023/09/06 16:47:09;;;;;;;2.33;2.00;;;24.60;99.90;;;;;;5040201;28;20029;-35
2023/09/06 16:49:35;;;;;;;2.03;1.70;;;24.60;99.90;;;;;;5042351;28;20037;-31
2023/09/06 16:52:07;;;;;;;2.92;2.00;;;24.60;99.90;;;;;;5041603;28;20075;-35
2023/09/06 16:54:36;;;;;;;2.53;1.80;;;24.50;99.90;;;;;;5040886;28;20160;-36
2023/09/06 16:57:03;;;;;;;2.70;1.95;;;24.40;99.90;;;;;;5043173;28;20481;-33
2023/09/06 16:59:29;;;;;;;;;;;24.40;99.90;;;;;;5043978;28;20499;-33
2023/09/06 17:01:56;;;;;;;1.77;1.63;;;24.50;99.90;;;;;;5045061;28;19919;-34
2023/09/06 17:04:22;;;;;;;3.20;1.70;;;24.40;99.90;;;;;;5042931;28;20072;-35
2023/09/06 17:06:48;;;;;;;2.00;1.77;;;24.10;99.90;;;;;;5044290;28;20483;-32
2023/09/06 17:09:15;;;;;;;1.98;1.70;;;23.90;99.90;;;;;;5043994;28;20025;-33
2023/09/06 17:11:43;;;;;;;3.00;1.60;;;23.80;99.90;;;;;;5035813;28;20037;-39
2023/09/06 17:14:12;;;;;;;2.10;1.58;;;23.70;99.90;;;;;;5032310;28;20039;-36
2023/09/06 17:16:38;;;;;;;3.00;1.70;;;23.70;99.90;;;;;;5034114;28;20415;-38
2023/09/06 17:19:15;;;;;;;4.15;1.70;;;23.70;99.90;;;;;;5033952;28;20029;-37
2023/09/06 17:21:41;;;;;;;1.88;1.40;;;23.40;99.90;;;;;;5040465;28;20024;-40
2023/09/06 17:24:08;;;;;;;1.60;1.50;;;23.30;99.90;;;;;;5041348;28;20041;-35
2023/09/06 17:26:36;;;;;;;2.22;1.70;;;23.20;99.90;;;;;;5037821;28;20083;-39
2023/09/06 17:29:05;;;;;;;1.90;1.75;;;23.20;99.90;;;;;;5044986;28;20040;-40
2023/09/06 17:31:32;;;;;;;1.70;1.60;;;23.10;99.90;;;;;;5037304;28;20455;-36
2023/09/06 17:33:58;;;;;;;1.98;1.60;;;23.10;99.90;;;;;;5042714;28;20151;-39